sensor_id;sensor_type;location;lat;lon;timestamp;P1;durP1;ratioP1;P2;durP2;ratioP2
4206;SDS011;2117;47.972;7.830;2023-04-25T00:02:25;7.70;;;3.00;;
4206;SDS011;2117;47.972;7.830;2023-04-25T00:04:50;5.50;;;2.80;;
4206;SDS011;2117;47.972;7.830;2023-04-25T00:07:16;5.93;;;2.73;;
4206;SDS011;2117;47.972;7.830;2023-04-25T00:09:42;5.63;;;2.73;;
4206;SDS011;2117;47.972;7.830;2023-04-25T00:12:08;4.57;;;2.70;;
4206;SDS011;2117;47.972;7.830;2023-04-25T00:14:33;7.90;;;3.27;;
4206;SDS011;2117;47.972;7.830;2023-04-25T00:17:00;11.40;;;3.00;;
4206;SDS011;2117;47.972;7.830;2023-04-25T00:19:26;8.00;;;2.83;;
4206;SDS011;2117;47.972;7.830;2023-04-25T00:21:53;8.13;;;3.63;;
4206;SDS011;2117;47.972;7.830;2023-04-25T00:24:19;4.77;;;3.10;;
4206;SDS011;2117;47.972;7.830;2023-04-25T00:26:45;5.43;;;2.83;;
4206;SDS011;2117;47.972;7.830;2023-04-25T00:29:11;5.67;;;2.63;;
4206;SDS011;2117;47.972;7.830;2023-04-25T00:31:36;6.87;;;2.73;;
4206;SDS011;2117;47.972;7.830;2023-04-25T00:34:02;4.30;;;2.60;;
4206;SDS011;2117;47.972;7.830;2023-04-25T00:36:28;7.27;;;3.67;;
4206;SDS011;2117;47.972;7.830;2023-04-25T00:38:53;9.00;;;2.90;;
4206;SDS011;2117;47.972;7.830;2023-04-25T00:41:20;11.93;;;4.00;;
4206;SDS011;2117;47.972;7.830;2023-04-25T00:43:45;6.93;;;2.90;;
4206;SDS011;2117;47.972;7.830;2023-04-25T00:46:13;10.53;;;3.40;;
4206;SDS011;2117;47.972;7.830;2023-04-25T00:48:38;6.70;;;3.40;;
4206;SDS011;2117;47.972;7.830;2023-04-25T00:51:04;5.50;;;3.53;;
4206;SDS011;2117;47.972;7.830;2023-04-25T00:53:31;5.80;;;3.37;;
4206;SDS011;2117;47.972;7.830;2023-04-25T00:55:57;8.97;;;4.13;;
4206;SDS011;2117;47.972;7.830;2023-04-25T00:58:23;8.07;;;3.70;;
4206;SDS011;2117;47.972;7.830;2023-04-25T01:00:49;9.47;;;3.30;;
4206;SDS011;2117;47.972;7.830;2023-04-25T01:03:17;4.20;;;3.17;;
4206;SDS011;2117;47.972;7.830;2023-04-25T01:05:45;10.60;;;3.97;;
4206;SDS011;2117;47.972;7.830;2023-04-25T01:08:11;6.90;;;3.20;;
4206;SDS011;2117;47.972;7.830;2023-04-25T01:10:38;7.73;;;3.57;;
4206;SDS011;2117;47.972;7.830;2023-04-25T01:13:03;5.63;;;3.40;;
4206;SDS011;2117;47.972;7.830;2023-04-25T01:15:29;18.30;;;4.10;;
4206;SDS011;2117;47.972;7.830;2023-04-25T01:17:55;6.67;;;3.30;;
4206;SDS011;2117;47.972;7.830;2023-04-25T01:20:22;6.87;;;3.67;;
4206;SDS011;2117;47.972;7.830;2023-04-25T01:22:51;12.27;;;4.40;;
4206;SDS011;2117;47.972;7.830;2023-04-25T01:25:18;6.80;;;4.43;;
4206;SDS011;2117;47.972;7.830;2023-04-25T01:27:44;5.53;;;3.13;;
4206;SDS011;2117;47.972;7.830;2023-04-25T01:30:10;7.70;;;3.83;;
4206;SDS011;2117;47.972;7.830;2023-04-25T01:32:36;8.60;;;3.83;;
4206;SDS011;2117;47.972;7.830;2023-04-25T01:35:06;6.40;;;3.60;;
4206;SDS011;2117;47.972;7.830;2023-04-25T01:37:35;10.30;;;3.80;;
4206;SDS011;2117;47.972;7.830;2023-04-25T01:40:04;9.07;;;4.37;;
4206;SDS011;2117;47.972;7.830;2023-04-25T01:42:32;6.93;;;3.80;;
4206;SDS011;2117;47.972;7.830;2023-04-25T01:44:58;9.70;;;4.70;;
4206;SDS011;2117;47.972;7.830;2023-04-25T01:47:24;7.90;;;4.27;;
4206;SDS011;2117;47.972;7.830;2023-04-25T01:49:50;7.80;;;4.63;;
4206;SDS011;2117;47.972;7.830;2023-04-25T01:52:15;6.50;;;3.77;;
4206;SDS011;2117;47.972;7.830;2023-04-25T01:54:41;13.80;;;3.83;;
4206;SDS011;2117;47.972;7.830;2023-04-25T01:57:09;7.20;;;3.33;;
4206;SDS011;2117;47.972;7.830;2023-04-25T01:59:36;7.73;;;3.67;;
4206;SDS011;2117;47.972;7.830;2023-04-25T02:02:02;7.37;;;2.97;;
4206;SDS011;2117;47.972;7.830;2023-04-25T02:04:29;10.20;;;3.60;;
4206;SDS011;2117;47.972;7.830;2023-04-25T02:06:55;18.43;;;5.40;;
4206;SDS011;2117;47.972;7.830;2023-04-25T02:09:21;7.30;;;3.43;;
4206;SDS011;2117;47.972;7.830;2023-04-25T02:11:47;7.63;;;3.23;;
4206;SDS011;2117;47.972;7.830;2023-04-25T02:14:12;4.30;;;2.97;;
4206;SDS011;2117;47.972;7.830;2023-04-25T02:16:38;6.03;;;3.70;;
4206;SDS011;2117;47.972;7.830;2023-04-25T02:19:04;4.63;;;3.60;;
4206;SDS011;2117;47.972;7.830;2023-04-25T02:21:30;4.47;;;3.53;;
4206;SDS011;2117;47.972;7.830;2023-04-25T02:23:56;7.43;;;3.27;;
4206;SDS011;2117;47.972;7.830;2023-04-25T02:26:22;5.70;;;2.87;;
4206;SDS011;2117;47.972;7.830;2023-04-25T02:28:48;5.30;;;2.80;;
4206;SDS011;2117;47.972;7.830;2023-04-25T02:31:15;6.53;;;3.63;;
4206;SDS011;2117;47.972;7.830;2023-04-25T02:33:41;7.60;;;3.40;;
4206;SDS011;2117;47.972;7.830;2023-04-25T02:36:07;8.43;;;3.50;;
4206;SDS011;2117;47.972;7.830;2023-04-25T02:38:32;8.57;;;3.57;;
4206;SDS011;2117;47.972;7.830;2023-04-25T02:40:58;6.43;;;3.40;;
4206;SDS011;2117;47.972;7.830;2023-04-25T02:43:23;7.30;;;3.50;;
4206;SDS011;2117;47.972;7.830;2023-04-25T02:45:49;3.73;;;2.90;;
4206;SDS011;2117;47.972;7.830;2023-04-25T02:48:14;12.73;;;5.30;;
4206;SDS011;2117;47.972;7.830;2023-04-25T02:50:40;8.00;;;3.43;;
4206;SDS011;2117;47.972;7.830;2023-04-25T02:53:06;11.23;;;3.40;;
4206;SDS011;2117;47.972;7.830;2023-04-25T02:55:31;10.20;;;3.43;;
4206;SDS011;2117;47.972;7.830;2023-04-25T02:57:57;8.20;;;4.23;;
4206;SDS011;2117;47.972;7.830;2023-04-25T03:00:22;5.50;;;3.70;;
4206;SDS011;2117;47.972;7.830;2023-04-25T03:02:48;7.00;;;3.20;;
4206;SDS011;2117;47.972;7.830;2023-04-25T03:05:14;6.13;;;3.03;;
4206;SDS011;2117;47.972;7.830;2023-04-25T03:07:39;4.57;;;3.10;;
4206;SDS011;2117;47.972;7.830;2023-04-25T03:10:08;4.53;;;3.13;;
4206;SDS011;2117;47.972;7.830;2023-04-25T03:12:34;5.47;;;2.87;;
4206;SDS011;2117;47.972;7.830;2023-04-25T03:14:59;5.43;;;3.10;;
4206;SDS011;2117;47.972;7.830;2023-04-25T03:17:25;8.20;;;3.50;;
4206;SDS011;2117;47.972;7.830;2023-04-25T03:19:51;6.47;;;3.60;;
4206;SDS011;2117;47.972;7.830;2023-04-25T03:22:16;8.17;;;3.20;;
4206;SDS011;2117;47.972;7.830;2023-04-25T03:24:42;4.93;;;3.10;;
4206;SDS011;2117;47.972;7.830;2023-04-25T03:27:08;11.70;;;3.30;;
4206;SDS011;2117;47.972;7.830;2023-04-25T03:29:33;5.53;;;3.07;;
4206;SDS011;2117;47.972;7.830;2023-04-25T03:31:59;5.03;;;2.63;;
4206;SDS011;2117;47.972;7.830;2023-04-25T03:34:24;6.47;;;3.20;;
4206;SDS011;2117;47.972;7.830;2023-04-25T03:36:50;6.57;;;3.43;;
4206;SDS011;2117;47.972;7.830;2023-04-25T03:39:16;7.37;;;3.53;;
4206;SDS011;2117;47.972;7.830;2023-04-25T03:41:42;8.93;;;3.40;;
4206;SDS011;2117;47.972;7.830;2023-04-25T03:44:07;6.87;;;2.93;;
4206;SDS011;2117;47.972;7.830;2023-04-25T03:46:33;5.57;;;2.80;;
4206;SDS011;2117;47.972;7.830;2023-04-25T03:48:58;9.90;;;4.17;;
4206;SDS011;2117;47.972;7.830;2023-04-25T03:51:24;13.10;;;3.10;;
4206;SDS011;2117;47.972;7.830;2023-04-25T03:53:50;8.27;;;3.00;;
4206;SDS011;2117;47.972;7.830;2023-04-25T03:56:16;5.30;;;3.20;;
4206;SDS011;2117;47.972;7.830;2023-04-25T03:58:42;5.67;;;3.30;;
4206;SDS011;2117;47.972;7.830;2023-04-25T04:01:07;7.83;;;3.27;;
4206;SDS011;2117;47.972;7.830;2023-04-25T04:03:34;5.57;;;3.03;;
4206;SDS011;2117;47.972;7.830;2023-04-25T04:06:00;12.37;;;3.73;;
4206;SDS011;2117;47.972;7.830;2023-04-25T04:08:30;13.97;;;3.50;;
4206;SDS011;2117;47.972;7.830;2023-04-25T04:10:57;6.00;;;3.17;;
4206;SDS011;2117;47.972;7.830;2023-04-25T04:13:23;7.20;;;3.50;;
4206;SDS011;2117;47.972;7.830;2023-04-25T04:15:48;7.37;;;3.77;;
4206;SDS011;2117;47.972;7.830;2023-04-25T04:18:14;7.63;;;4.13;;
4206;SDS011;2117;47.972;7.830;2023-04-25T04:20:40;13.33;;;4.80;;
4206;SDS011;2117;47.972;7.830;2023-04-25T04:23:05;10.93;;;4.50;;
4206;SDS011;2117;47.972;7.830;2023-04-25T04:25:31;8.07;;;4.20;;
4206;SDS011;2117;47.972;7.830;2023-04-25T04:27:56;8.27;;;4.17;;
4206;SDS011;2117;47.972;7.830;2023-04-25T04:30:23;5.90;;;3.17;;
4206;SDS011;2117;47.972;7.830;2023-04-25T04:32:50;8.33;;;3.50;;
4206;SDS011;2117;47.972;7.830;2023-04-25T04:35:16;12.53;;;4.77;;
4206;SDS011;2117;47.972;7.830;2023-04-25T04:37:42;8.03;;;4.20;;
4206;SDS011;2117;47.972;7.830;2023-04-25T04:40:09;9.77;;;4.30;;
4206;SDS011;2117;47.972;7.830;2023-04-25T04:42:34;9.03;;;3.70;;
4206;SDS011;2117;47.972;7.830;2023-04-25T04:45:01;7.93;;;4.10;;
4206;SDS011;2117;47.972;7.830;2023-04-25T04:47:27;14.90;;;4.00;;
4206;SDS011;2117;47.972;7.830;2023-04-25T04:49:56;7.77;;;4.00;;
4206;SDS011;2117;47.972;7.830;2023-04-25T04:52:22;8.00;;;4.23;;
4206;SDS011;2117;47.972;7.830;2023-04-25T04:54:47;12.10;;;4.43;;
4206;SDS011;2117;47.972;7.830;2023-04-25T04:57:13;15.60;;;4.53;;
4206;SDS011;2117;47.972;7.830;2023-04-25T04:59:38;12.03;;;4.20;;
4206;SDS011;2117;47.972;7.830;2023-04-25T05:02:04;9.13;;;3.60;;
4206;SDS011;2117;47.972;7.830;2023-04-25T05:04:29;11.97;;;4.30;;
4206;SDS011;2117;47.972;7.830;2023-04-25T05:06:55;6.47;;;3.80;;
4206;SDS011;2117;47.972;7.830;2023-04-25T05:09:20;8.37;;;3.57;;
4206;SDS011;2117;47.972;7.830;2023-04-25T05:11:50;7.20;;;3.30;;
4206;SDS011;2117;47.972;7.830;2023-04-25T05:14:16;9.73;;;3.97;;
4206;SDS011;2117;47.972;7.830;2023-04-25T05:16:42;6.23;;;3.77;;
4206;SDS011;2117;47.972;7.830;2023-04-25T05:19:08;10.63;;;3.80;;
4206;SDS011;2117;47.972;7.830;2023-04-25T05:21:34;10.33;;;3.60;;
4206;SDS011;2117;47.972;7.830;2023-04-25T05:23:59;8.33;;;4.20;;
4206;SDS011;2117;47.972;7.830;2023-04-25T05:26:25;6.03;;;3.73;;
4206;SDS011;2117;47.972;7.830;2023-04-25T05:28:51;8.70;;;2.50;;
4206;SDS011;2117;47.972;7.830;2023-04-25T05:31:16;5.27;;;3.03;;
4206;SDS011;2117;47.972;7.830;2023-04-25T05:33:42;3.23;;;2.50;;
4206;SDS011;2117;47.972;7.830;2023-04-25T05:36:08;3.87;;;2.30;;
4206;SDS011;2117;47.972;7.830;2023-04-25T05:38:33;4.93;;;2.20;;
4206;SDS011;2117;47.972;7.830;2023-04-25T05:40:59;3.33;;;1.47;;
4206;SDS011;2117;47.972;7.830;2023-04-25T05:43:25;3.00;;;1.13;;
4206;SDS011;2117;47.972;7.830;2023-04-25T05:45:50;2.37;;;1.30;;
4206;SDS011;2117;47.972;7.830;2023-04-25T05:48:16;4.53;;;1.50;;
4206;SDS011;2117;47.972;7.830;2023-04-25T05:50:41;2.60;;;1.37;;
4206;SDS011;2117;47.972;7.830;2023-04-25T05:53:07;5.20;;;1.97;;
4206;SDS011;2117;47.972;7.830;2023-04-25T05:55:33;3.10;;;1.47;;
4206;SDS011;2117;47.972;7.830;2023-04-25T05:57:59;1.57;;;1.00;;
4206;SDS011;2117;47.972;7.830;2023-04-25T06:00:25;2.70;;;1.20;;
4206;SDS011;2117;47.972;7.830;2023-04-25T06:02:50;1.97;;;1.17;;
4206;SDS011;2117;47.972;7.830;2023-04-25T06:05:16;1.50;;;0.97;;
4206;SDS011;2117;47.972;7.830;2023-04-25T06:07:41;1.47;;;0.70;;
4206;SDS011;2117;47.972;7.830;2023-04-25T06:10:07;3.40;;;1.10;;
4206;SDS011;2117;47.972;7.830;2023-04-25T06:12:33;3.17;;;1.10;;
4206;SDS011;2117;47.972;7.830;2023-04-25T06:14:59;1.73;;;0.83;;
4206;SDS011;2117;47.972;7.830;2023-04-25T06:17:25;1.67;;;0.87;;
4206;SDS011;2117;47.972;7.830;2023-04-25T06:19:50;2.40;;;1.00;;
4206;SDS011;2117;47.972;7.830;2023-04-25T06:22:16;1.87;;;1.03;;
4206;SDS011;2117;47.972;7.830;2023-04-25T06:24:41;4.40;;;0.90;;
4206;SDS011;2117;47.972;7.830;2023-04-25T06:27:07;1.20;;;0.87;;
4206;SDS011;2117;47.972;7.830;2023-04-25T06:29:32;1.20;;;0.80;;
4206;SDS011;2117;47.972;7.830;2023-04-25T06:31:58;1.20;;;0.77;;
4206;SDS011;2117;47.972;7.830;2023-04-25T06:34:23;1.33;;;0.80;;
4206;SDS011;2117;47.972;7.830;2023-04-25T06:36:49;1.93;;;1.23;;
4206;SDS011;2117;47.972;7.830;2023-04-25T06:39:15;1.37;;;1.00;;
4206;SDS011;2117;47.972;7.830;2023-04-25T06:41:41;1.57;;;1.23;;
4206;SDS011;2117;47.972;7.830;2023-04-25T06:44:06;3.00;;;1.53;;
4206;SDS011;2117;47.972;7.830;2023-04-25T06:46:32;3.73;;;2.00;;
4206;SDS011;2117;47.972;7.830;2023-04-25T06:48:57;2.83;;;1.80;;
4206;SDS011;2117;47.972;7.830;2023-04-25T06:51:23;3.17;;;1.37;;
4206;SDS011;2117;47.972;7.830;2023-04-25T06:53:49;2.30;;;1.57;;
4206;SDS011;2117;47.972;7.830;2023-04-25T06:56:15;2.00;;;1.20;;
4206;SDS011;2117;47.972;7.830;2023-04-25T06:58:41;2.53;;;1.43;;
4206;SDS011;2117;47.972;7.830;2023-04-25T07:01:06;2.10;;;1.37;;
4206;SDS011;2117;47.972;7.830;2023-04-25T07:03:32;2.43;;;1.30;;
4206;SDS011;2117;47.972;7.830;2023-04-25T07:05:57;2.00;;;1.23;;
4206;SDS011;2117;47.972;7.830;2023-04-25T07:08:23;3.20;;;1.67;;
4206;SDS011;2117;47.972;7.830;2023-04-25T07:10:48;6.10;;;2.30;;
4206;SDS011;2117;47.972;7.830;2023-04-25T07:13:14;1.87;;;1.40;;
4206;SDS011;2117;47.972;7.830;2023-04-25T07:15:39;3.80;;;2.00;;
4206;SDS011;2117;47.972;7.830;2023-04-25T07:18:05;5.97;;;3.23;;
4206;SDS011;2117;47.972;7.830;2023-04-25T07:20:31;3.33;;;1.90;;
4206;SDS011;2117;47.972;7.830;2023-04-25T07:22:57;4.33;;;2.10;;
4206;SDS011;2117;47.972;7.830;2023-04-25T07:25:23;2.73;;;2.07;;
4206;SDS011;2117;47.972;7.830;2023-04-25T07:27:48;2.70;;;1.50;;
4206;SDS011;2117;47.972;7.830;2023-04-25T07:30:14;2.87;;;2.00;;
4206;SDS011;2117;47.972;7.830;2023-04-25T07:32:40;2.90;;;1.70;;
4206;SDS011;2117;47.972;7.830;2023-04-25T07:35:05;3.70;;;1.83;;
4206;SDS011;2117;47.972;7.830;2023-04-25T07:37:32;3.07;;;1.60;;
4206;SDS011;2117;47.972;7.830;2023-04-25T07:39:58;2.70;;;1.80;;
4206;SDS011;2117;47.972;7.830;2023-04-25T07:42:24;4.00;;;2.23;;
4206;SDS011;2117;47.972;7.830;2023-04-25T07:44:49;4.50;;;2.50;;
4206;SDS011;2117;47.972;7.830;2023-04-25T07:47:16;4.43;;;2.47;;
4206;SDS011;2117;47.972;7.830;2023-04-25T07:49:44;2.60;;;2.10;;
4206;SDS011;2117;47.972;7.830;2023-04-25T07:52:10;3.67;;;2.60;;
4206;SDS011;2117;47.972;7.830;2023-04-25T07:54:36;7.73;;;2.77;;
4206;SDS011;2117;47.972;7.830;2023-04-25T07:57:01;4.33;;;3.10;;
4206;SDS011;2117;47.972;7.830;2023-04-25T07:59:27;4.20;;;2.53;;
4206;SDS011;2117;47.972;7.830;2023-04-25T08:01:53;5.80;;;3.00;;
4206;SDS011;2117;47.972;7.830;2023-04-25T08:04:18;4.87;;;2.70;;
4206;SDS011;2117;47.972;7.830;2023-04-25T08:06:44;3.93;;;2.60;;
4206;SDS011;2117;47.972;7.830;2023-04-25T08:09:10;3.23;;;2.30;;
4206;SDS011;2117;47.972;7.830;2023-04-25T08:11:36;3.60;;;2.53;;
4206;SDS011;2117;47.972;7.830;2023-04-25T08:14:02;6.30;;;2.90;;
4206;SDS011;2117;47.972;7.830;2023-04-25T08:16:27;4.00;;;2.40;;
4206;SDS011;2117;47.972;7.830;2023-04-25T08:18:53;3.60;;;2.47;;
4206;SDS011;2117;47.972;7.830;2023-04-25T08:21:19;5.33;;;3.30;;
4206;SDS011;2117;47.972;7.830;2023-04-25T08:23:45;3.77;;;2.67;;
4206;SDS011;2117;47.972;7.830;2023-04-25T08:26:11;3.30;;;2.67;;
4206;SDS011;2117;47.972;7.830;2023-04-25T08:28:36;3.67;;;2.70;;
4206;SDS011;2117;47.972;7.830;2023-04-25T08:31:02;5.23;;;2.27;;
4206;SDS011;2117;47.972;7.830;2023-04-25T08:33:28;4.83;;;2.60;;
4206;SDS011;2117;47.972;7.830;2023-04-25T08:35:54;3.77;;;2.00;;
4206;SDS011;2117;47.972;7.830;2023-04-25T08:38:19;3.20;;;1.77;;
4206;SDS011;2117;47.972;7.830;2023-04-25T08:40:46;3.20;;;2.27;;
4206;SDS011;2117;47.972;7.830;2023-04-25T08:43:15;3.43;;;2.40;;
4206;SDS011;2117;47.972;7.830;2023-04-25T08:45:43;4.47;;;2.47;;
4206;SDS011;2117;47.972;7.830;2023-04-25T08:48:14;4.90;;;2.90;;
4206;SDS011;2117;47.972;7.830;2023-04-25T08:50:43;5.57;;;2.60;;
4206;SDS011;2117;47.972;7.830;2023-04-25T08:53:21;4.10;;;3.10;;
4206;SDS011;2117;47.972;7.830;2023-04-25T08:55:50;7.60;;;3.80;;
4206;SDS011;2117;47.972;7.830;2023-04-25T08:58:19;5.37;;;3.23;;
4206;SDS011;2117;47.972;7.830;2023-04-25T09:00:48;6.13;;;3.53;;
4206;SDS011;2117;47.972;7.830;2023-04-25T09:03:15;3.00;;;2.60;;
4206;SDS011;2117;47.972;7.830;2023-04-25T09:05:41;4.63;;;3.23;;
4206;SDS011;2117;47.972;7.830;2023-04-25T09:08:07;4.97;;;2.60;;
4206;SDS011;2117;47.972;7.830;2023-04-25T09:10:33;3.60;;;2.50;;
4206;SDS011;2117;47.972;7.830;2023-04-25T09:15:51;6.77;;;2.73;;
4206;SDS011;2117;47.972;7.830;2023-04-25T09:20:53;5.10;;;3.10;;
4206;SDS011;2117;47.972;7.830;2023-04-25T09:23:20;3.67;;;2.43;;
4206;SDS011;2117;47.972;7.830;2023-04-25T09:25:47;4.10;;;2.50;;
4206;SDS011;2117;47.972;7.830;2023-04-25T09:28:13;2.87;;;2.33;;
4206;SDS011;2117;47.972;7.830;2023-04-25T09:30:39;3.03;;;2.00;;
4206;SDS011;2117;47.972;7.830;2023-04-25T09:33:05;2.83;;;2.10;;
4206;SDS011;2117;47.972;7.830;2023-04-25T09:35:35;3.57;;;2.03;;
4206;SDS011;2117;47.972;7.830;2023-04-25T09:38:09;2.30;;;1.70;;
4206;SDS011;2117;47.972;7.830;2023-04-25T09:40:38;3.97;;;1.77;;
4206;SDS011;2117;47.972;7.830;2023-04-25T09:43:09;2.53;;;1.70;;
4206;SDS011;2117;47.972;7.830;2023-04-25T09:45:42;4.30;;;2.03;;
4206;SDS011;2117;47.972;7.830;2023-04-25T09:48:16;1.93;;;1.60;;
4206;SDS011;2117;47.972;7.830;2023-04-25T09:50:50;3.27;;;2.17;;
4206;SDS011;2117;47.972;7.830;2023-04-25T09:53:35;3.13;;;2.43;;
4206;SDS011;2117;47.972;7.830;2023-04-25T09:56:03;4.43;;;2.33;;
4206;SDS011;2117;47.972;7.830;2023-04-25T09:58:30;2.90;;;1.63;;
4206;SDS011;2117;47.972;7.830;2023-04-25T10:00:58;2.70;;;1.87;;
4206;SDS011;2117;47.972;7.830;2023-04-25T10:03:32;2.83;;;1.50;;
4206;SDS011;2117;47.972;7.830;2023-04-25T10:05:59;2.93;;;1.97;;
4206;SDS011;2117;47.972;7.830;2023-04-25T10:08:31;3.80;;;1.80;;
4206;SDS011;2117;47.972;7.830;2023-04-25T10:11:01;3.20;;;1.60;;
4206;SDS011;2117;47.972;7.830;2023-04-25T10:13:29;2.77;;;1.50;;
4206;SDS011;2117;47.972;7.830;2023-04-25T10:15:59;3.30;;;1.67;;
4206;SDS011;2117;47.972;7.830;2023-04-25T10:18:28;2.07;;;1.57;;
4206;SDS011;2117;47.972;7.830;2023-04-25T10:20:56;2.60;;;1.63;;
4206;SDS011;2117;47.972;7.830;2023-04-25T10:23:24;4.80;;;2.17;;
4206;SDS011;2117;47.972;7.830;2023-04-25T10:25:51;4.67;;;2.30;;
4206;SDS011;2117;47.972;7.830;2023-04-25T10:28:17;18.63;;;3.13;;
4206;SDS011;2117;47.972;7.830;2023-04-25T10:30:57;3.90;;;1.97;;
4206;SDS011;2117;47.972;7.830;2023-04-25T10:33:38;4.90;;;2.17;;
4206;SDS011;2117;47.972;7.830;2023-04-25T10:36:10;7.23;;;2.03;;
4206;SDS011;2117;47.972;7.830;2023-04-25T10:38:37;5.20;;;1.93;;
4206;SDS011;2117;47.972;7.830;2023-04-25T10:41:07;3.10;;;2.10;;
4206;SDS011;2117;47.972;7.830;2023-04-25T10:43:35;3.40;;;2.20;;
4206;SDS011;2117;47.972;7.830;2023-04-25T10:46:26;6.00;;;2.10;;
4206;SDS011;2117;47.972;7.830;2023-04-25T10:48:52;2.77;;;1.40;;
4206;SDS011;2117;47.972;7.830;2023-04-25T10:59:02;3.10;;;1.80;;
4206;SDS011;2117;47.972;7.830;2023-04-25T11:01:38;2.47;;;1.67;;
4206;SDS011;2117;47.972;7.830;2023-04-25T11:04:24;2.77;;;1.93;;
4206;SDS011;2117;47.972;7.830;2023-04-25T11:09:48;2.97;;;2.50;;
4206;SDS011;2117;47.972;7.830;2023-04-25T11:12:14;3.63;;;2.40;;
4206;SDS011;2117;47.972;7.830;2023-04-25T11:14:41;3.23;;;2.50;;
4206;SDS011;2117;47.972;7.830;2023-04-25T11:17:07;5.03;;;3.07;;
4206;SDS011;2117;47.972;7.830;2023-04-25T11:19:32;5.77;;;4.40;;
4206;SDS011;2117;47.972;7.830;2023-04-25T11:21:58;3.57;;;2.73;;
4206;SDS011;2117;47.972;7.830;2023-04-25T11:24:34;3.40;;;2.70;;
4206;SDS011;2117;47.972;7.830;2023-04-25T11:27:02;2.80;;;2.47;;
4206;SDS011;2117;47.972;7.830;2023-04-25T11:29:29;3.50;;;2.43;;
4206;SDS011;2117;47.972;7.830;2023-04-25T11:31:55;4.83;;;2.83;;
4206;SDS011;2117;47.972;7.830;2023-04-25T11:34:23;5.33;;;2.90;;
4206;SDS011;2117;47.972;7.830;2023-04-25T11:36:52;4.73;;;2.90;;
4206;SDS011;2117;47.972;7.830;2023-04-25T11:39:19;5.43;;;2.30;;
4206;SDS011;2117;47.972;7.830;2023-04-25T11:41:45;3.80;;;2.87;;
4206;SDS011;2117;47.972;7.830;2023-04-25T11:44:11;4.13;;;3.13;;
4206;SDS011;2117;47.972;7.830;2023-04-25T11:46:40;3.90;;;3.23;;
4206;SDS011;2117;47.972;7.830;2023-04-25T11:49:05;5.37;;;2.60;;
4206;SDS011;2117;47.972;7.830;2023-04-25T11:51:37;3.03;;;2.27;;
4206;SDS011;2117;47.972;7.830;2023-04-25T11:54:06;6.07;;;2.40;;
4206;SDS011;2117;47.972;7.830;2023-04-25T11:56:32;4.50;;;2.87;;
4206;SDS011;2117;47.972;7.830;2023-04-25T11:59:05;4.07;;;2.97;;
4206;SDS011;2117;47.972;7.830;2023-04-25T12:01:34;5.20;;;2.33;;
4206;SDS011;2117;47.972;7.830;2023-04-25T12:04:20;3.60;;;2.80;;
4206;SDS011;2117;47.972;7.830;2023-04-25T12:06:48;3.93;;;2.73;;
4206;SDS011;2117;47.972;7.830;2023-04-25T12:09:18;5.73;;;2.30;;
4206;SDS011;2117;47.972;7.830;2023-04-25T12:11:55;4.03;;;2.50;;
4206;SDS011;2117;47.972;7.830;2023-04-25T12:14:30;3.77;;;1.80;;
4206;SDS011;2117;47.972;7.830;2023-04-25T12:16:58;4.53;;;1.90;;
4206;SDS011;2117;47.972;7.830;2023-04-25T12:19:25;3.53;;;2.40;;
4206;SDS011;2117;47.972;7.830;2023-04-25T12:21:51;2.10;;;1.50;;
4206;SDS011;2117;47.972;7.830;2023-04-25T12:24:21;4.67;;;2.20;;
4206;SDS011;2117;47.972;7.830;2023-04-25T12:26:52;3.20;;;2.03;;
4206;SDS011;2117;47.972;7.830;2023-04-25T12:29:26;2.50;;;1.37;;
4206;SDS011;2117;47.972;7.830;2023-04-25T12:31:54;2.60;;;1.53;;
4206;SDS011;2117;47.972;7.830;2023-04-25T12:34:20;2.90;;;2.10;;
4206;SDS011;2117;47.972;7.830;2023-04-25T12:36:47;2.30;;;1.43;;
4206;SDS011;2117;47.972;7.830;2023-04-25T12:39:16;3.50;;;2.10;;
4206;SDS011;2117;47.972;7.830;2023-04-25T12:41:44;2.27;;;1.57;;
4206;SDS011;2117;47.972;7.830;2023-04-25T12:44:10;2.80;;;1.80;;
4206;SDS011;2117;47.972;7.830;2023-04-25T12:46:36;2.50;;;1.70;;
4206;SDS011;2117;47.972;7.830;2023-04-25T12:49:03;2.93;;;1.83;;
4206;SDS011;2117;47.972;7.830;2023-04-25T12:51:29;2.27;;;1.60;;
4206;SDS011;2117;47.972;7.830;2023-04-25T12:53:55;2.50;;;1.37;;
4206;SDS011;2117;47.972;7.830;2023-04-25T12:56:21;2.10;;;1.30;;
4206;SDS011;2117;47.972;7.830;2023-04-25T12:58:46;4.40;;;1.60;;
4206;SDS011;2117;47.972;7.830;2023-04-25T13:01:13;2.63;;;1.30;;
4206;SDS011;2117;47.972;7.830;2023-04-25T13:03:39;4.13;;;1.67;;
4206;SDS011;2117;47.972;7.830;2023-04-25T13:06:05;3.90;;;1.53;;
4206;SDS011;2117;47.972;7.830;2023-04-25T13:08:31;2.63;;;1.43;;
4206;SDS011;2117;47.972;7.830;2023-04-25T13:10:57;2.63;;;1.53;;
4206;SDS011;2117;47.972;7.830;2023-04-25T13:13:23;2.30;;;1.50;;
4206;SDS011;2117;47.972;7.830;2023-04-25T13:15:49;3.23;;;1.60;;
4206;SDS011;2117;47.972;7.830;2023-04-25T13:18:14;2.30;;;1.27;;
4206;SDS011;2117;47.972;7.830;2023-04-25T13:20:40;3.80;;;1.63;;
4206;SDS011;2117;47.972;7.830;2023-04-25T13:23:06;2.17;;;1.40;;
4206;SDS011;2117;47.972;7.830;2023-04-25T13:25:32;2.80;;;1.10;;
4206;SDS011;2117;47.972;7.830;2023-04-25T13:27:57;4.33;;;1.60;;
4206;SDS011;2117;47.972;7.830;2023-04-25T13:30:23;2.17;;;1.20;;
4206;SDS011;2117;47.972;7.830;2023-04-25T13:32:49;2.73;;;1.70;;
4206;SDS011;2117;47.972;7.830;2023-04-25T13:35:14;2.10;;;1.70;;
4206;SDS011;2117;47.972;7.830;2023-04-25T13:37:41;3.10;;;2.00;;
4206;SDS011;2117;47.972;7.830;2023-04-25T13:40:08;3.17;;;2.13;;
4206;SDS011;2117;47.972;7.830;2023-04-25T13:42:36;2.43;;;1.30;;
4206;SDS011;2117;47.972;7.830;2023-04-25T13:45:02;2.33;;;1.20;;
4206;SDS011;2117;47.972;7.830;2023-04-25T13:47:28;1.80;;;0.90;;
4206;SDS011;2117;47.972;7.830;2023-04-25T13:49:55;2.97;;;1.40;;
4206;SDS011;2117;47.972;7.830;2023-04-25T13:52:21;3.37;;;1.40;;
4206;SDS011;2117;47.972;7.830;2023-04-25T13:54:46;6.07;;;1.30;;
4206;SDS011;2117;47.972;7.830;2023-04-25T13:57:12;1.80;;;0.80;;
4206;SDS011;2117;47.972;7.830;2023-04-25T13:59:38;1.67;;;0.97;;
4206;SDS011;2117;47.972;7.830;2023-04-25T14:02:04;1.63;;;1.00;;
4206;SDS011;2117;47.972;7.830;2023-04-25T14:04:30;5.27;;;1.23;;
4206;SDS011;2117;47.972;7.830;2023-04-25T14:06:55;1.97;;;1.10;;
4206;SDS011;2117;47.972;7.830;2023-04-25T14:09:21;1.40;;;0.80;;
4206;SDS011;2117;47.972;7.830;2023-04-25T14:11:50;2.17;;;1.20;;
4206;SDS011;2117;47.972;7.830;2023-04-25T14:14:17;1.90;;;1.10;;
4206;SDS011;2117;47.972;7.830;2023-04-25T14:16:43;1.80;;;1.10;;
4206;SDS011;2117;47.972;7.830;2023-04-25T14:19:08;2.17;;;1.10;;
4206;SDS011;2117;47.972;7.830;2023-04-25T14:21:34;2.10;;;1.00;;
4206;SDS011;2117;47.972;7.830;2023-04-25T14:24:00;1.40;;;0.73;;
4206;SDS011;2117;47.972;7.830;2023-04-25T14:26:25;2.03;;;1.20;;
4206;SDS011;2117;47.972;7.830;2023-04-25T14:28:51;3.87;;;1.83;;
4206;SDS011;2117;47.972;7.830;2023-04-25T14:31:17;2.10;;;1.47;;
4206;SDS011;2117;47.972;7.830;2023-04-25T14:33:43;4.83;;;1.30;;
4206;SDS011;2117;47.972;7.830;2023-04-25T14:36:09;2.77;;;1.30;;
4206;SDS011;2117;47.972;7.830;2023-04-25T14:38:36;3.87;;;1.67;;
4206;SDS011;2117;47.972;7.830;2023-04-25T14:41:01;1.83;;;1.23;;
4206;SDS011;2117;47.972;7.830;2023-04-25T14:43:27;2.43;;;1.43;;
4206;SDS011;2117;47.972;7.830;2023-04-25T14:45:53;3.17;;;1.47;;
4206;SDS011;2117;47.972;7.830;2023-04-25T14:48:18;1.83;;;1.17;;
4206;SDS011;2117;47.972;7.830;2023-04-25T14:50:44;2.03;;;1.33;;
4206;SDS011;2117;47.972;7.830;2023-04-25T14:53:11;3.73;;;1.33;;
4206;SDS011;2117;47.972;7.830;2023-04-25T14:55:37;2.43;;;1.77;;
4206;SDS011;2117;47.972;7.830;2023-04-25T14:58:02;2.90;;;1.60;;
4206;SDS011;2117;47.972;7.830;2023-04-25T15:00:28;2.23;;;1.53;;
4206;SDS011;2117;47.972;7.830;2023-04-25T15:02:55;2.57;;;1.70;;
4206;SDS011;2117;47.972;7.830;2023-04-25T15:05:21;2.37;;;1.60;;
4206;SDS011;2117;47.972;7.830;2023-04-25T15:07:47;2.07;;;1.60;;
4206;SDS011;2117;47.972;7.830;2023-04-25T15:10:12;2.57;;;1.73;;
4206;SDS011;2117;47.972;7.830;2023-04-25T15:12:40;4.43;;;1.67;;
4206;SDS011;2117;47.972;7.830;2023-04-25T15:15:07;2.47;;;1.60;;
4206;SDS011;2117;47.972;7.830;2023-04-25T15:17:43;2.97;;;1.80;;
4206;SDS011;2117;47.972;7.830;2023-04-25T15:20:09;2.73;;;1.57;;
4206;SDS011;2117;47.972;7.830;2023-04-25T15:22:37;4.50;;;1.83;;
4206;SDS011;2117;47.972;7.830;2023-04-25T15:25:03;2.10;;;1.57;;
4206;SDS011;2117;47.972;7.830;2023-04-25T15:27:29;2.97;;;2.00;;
4206;SDS011;2117;47.972;7.830;2023-04-25T15:29:55;3.07;;;2.23;;